sensor_id;sensor_type;location;lat;lon;timestamp;temperature;humidity
728;DHT22;347;48.780;9.158;2023-07-28T00:00:06;19.70;37.30
728;DHT22;347;48.780;9.158;2023-07-28T00:02:33;19.70;36.90
728;DHT22;347;48.780;9.158;2023-07-28T00:04:59;19.70;36.30
728;DHT22;347;48.780;9.158;2023-07-28T00:07:25;19.70;36.40
728;DHT22;347;48.780;9.158;2023-07-28T00:09:50;19.70;36.20
728;DHT22;347;48.780;9.158;2023-07-28T00:12:16;19.70;36.10
728;DHT22;347;48.780;9.158;2023-07-28T00:14:41;19.70;36.10
728;DHT22;347;48.780;9.158;2023-07-28T00:17:07;19.70;35.80
728;DHT22;347;48.780;9.158;2023-07-28T00:19:33;19.70;35.90
728;DHT22;347;48.780;9.158;2023-07-28T00:21:58;19.70;35.90
728;DHT22;347;48.780;9.158;2023-07-28T00:24:24;19.70;35.70
728;DHT22;347;48.780;9.158;2023-07-28T00:26:49;19.70;35.80
728;DHT22;347;48.780;9.158;2023-07-28T00:29:15;19.70;35.70
728;DHT22;347;48.780;9.158;2023-07-28T00:31:41;19.70;35.80
728;DHT22;347;48.780;9.158;2023-07-28T00:34:06;19.70;35.30
728;DHT22;347;48.780;9.158;2023-07-28T00:36:32;19.70;35.10
728;DHT22;347;48.780;9.158;2023-07-28T00:38:58;19.80;35.10
728;DHT22;347;48.780;9.158;2023-07-28T00:41:24;19.80;35.00
728;DHT22;347;48.780;9.158;2023-07-28T00:43:49;19.80;35.00
728;DHT22;347;48.780;9.158;2023-07-28T00:46:16;19.80;35.00
728;DHT22;347;48.780;9.158;2023-07-28T00:48:42;19.80;35.00
728;DHT22;347;48.780;9.158;2023-07-28T00:51:08;19.80;34.90
728;DHT22;347;48.780;9.158;2023-07-28T00:53:34;19.80;34.90
728;DHT22;347;48.780;9.158;2023-07-28T00:56:04;19.70;34.80
728;DHT22;347;48.780;9.158;2023-07-28T00:58:31;19.70;34.90
728;DHT22;347;48.780;9.158;2023-07-28T01:00:56;19.70;35.00
728;DHT22;347;48.780;9.158;2023-07-28T01:03:22;19.70;34.90
728;DHT22;347;48.780;9.158;2023-07-28T01:08:46;19.70;34.90
728;DHT22;347;48.780;9.158;2023-07-28T01:11:14;19.70;35.50
728;DHT22;347;48.780;9.158;2023-07-28T01:13:40;19.70;35.60
728;DHT22;347;48.780;9.158;2023-07-28T01:16:06;19.70;35.40
728;DHT22;347;48.780;9.158;2023-07-28T01:18:32;19.70;35.40
728;DHT22;347;48.780;9.158;2023-07-28T01:21:01;19.70;35.40
728;DHT22;347;48.780;9.158;2023-07-28T01:23:44;19.70;35.50
728;DHT22;347;48.780;9.158;2023-07-28T01:26:15;19.70;35.20
728;DHT22;347;48.780;9.158;2023-07-28T01:28:42;19.70;35.10
728;DHT22;347;48.780;9.158;2023-07-28T01:31:08;19.70;35.40
728;DHT22;347;48.780;9.158;2023-07-28T01:33:34;19.70;35.50
728;DHT22;347;48.780;9.158;2023-07-28T01:36:00;19.70;35.40
728;DHT22;347;48.780;9.158;2023-07-28T01:38:26;19.70;35.30
728;DHT22;347;48.780;9.158;2023-07-28T01:40:52;19.70;35.20
728;DHT22;347;48.780;9.158;2023-07-28T01:43:18;19.60;35.30
728;DHT22;347;48.780;9.158;2023-07-28T01:45:44;19.70;35.60
728;DHT22;347;48.780;9.158;2023-07-28T01:48:09;19.60;35.50
728;DHT22;347;48.780;9.158;2023-07-28T01:50:36;19.60;35.60
728;DHT22;347;48.780;9.158;2023-07-28T01:53:02;19.60;35.60
728;DHT22;347;48.780;9.158;2023-07-28T01:55:28;19.60;35.40
728;DHT22;347;48.780;9.158;2023-07-28T01:57:58;19.60;35.90
728;DHT22;347;48.780;9.158;2023-07-28T02:00:25;19.60;35.70
728;DHT22;347;48.780;9.158;2023-07-28T02:02:51;19.60;35.90
728;DHT22;347;48.780;9.158;2023-07-28T02:05:17;19.60;35.80
728;DHT22;347;48.780;9.158;2023-07-28T02:07:43;19.60;36.00
728;DHT22;347;48.780;9.158;2023-07-28T02:10:09;19.60;35.70
728;DHT22;347;48.780;9.158;2023-07-28T02:12:36;19.60;35.70
728;DHT22;347;48.780;9.158;2023-07-28T02:15:02;19.60;35.60
728;DHT22;347;48.780;9.158;2023-07-28T02:17:28;19.60;35.60
728;DHT22;347;48.780;9.158;2023-07-28T02:19:54;19.60;35.40
728;DHT22;347;48.780;9.158;2023-07-28T02:22:19;19.60;35.20
728;DHT22;347;48.780;9.158;2023-07-28T02:24:45;19.60;34.80
728;DHT22;347;48.780;9.158;2023-07-28T02:27:11;19.60;34.80
728;DHT22;347;48.780;9.158;2023-07-28T02:29:36;19.60;34.80
728;DHT22;347;48.780;9.158;2023-07-28T02:32:02;19.60;34.90
728;DHT22;347;48.780;9.158;2023-07-28T02:34:28;19.60;35.10
728;DHT22;347;48.780;9.158;2023-07-28T02:36:53;19.60;35.50
728;DHT22;347;48.780;9.158;2023-07-28T02:39:19;19.60;35.30
728;DHT22;347;48.780;9.158;2023-07-28T02:41:46;19.60;35.10
728;DHT22;347;48.780;9.158;2023-07-28T02:44:11;19.60;34.90
728;DHT22;347;48.780;9.158;2023-07-28T02:46:37;19.60;34.80
728;DHT22;347;48.780;9.158;2023-07-28T02:49:03;19.60;34.80
728;DHT22;347;48.780;9.158;2023-07-28T02:51:32;19.60;35.00
728;DHT22;347;48.780;9.158;2023-07-28T02:53:59;19.70;34.90
728;DHT22;347;48.780;9.158;2023-07-28T02:56:25;19.70;34.70
728;DHT22;347;48.780;9.158;2023-07-28T02:58:51;19.70;34.60
728;DHT22;347;48.780;9.158;2023-07-28T03:01:16;19.70;34.70
728;DHT22;347;48.780;9.158;2023-07-28T03:03:42;19.70;34.70
728;DHT22;347;48.780;9.158;2023-07-28T03:06:08;19.70;34.60
728;DHT22;347;48.780;9.158;2023-07-28T03:08:34;19.70;34.90
728;DHT22;347;48.780;9.158;2023-07-28T03:11:00;19.70;34.90
728;DHT22;347;48.780;9.158;2023-07-28T03:13:28;19.70;34.90
728;DHT22;347;48.780;9.158;2023-07-28T03:15:54;19.60;35.20
728;DHT22;347;48.780;9.158;2023-07-28T03:18:20;19.60;35.50
728;DHT22;347;48.780;9.158;2023-07-28T03:20:46;19.70;35.20
728;DHT22;347;48.780;9.158;2023-07-28T03:23:12;19.70;35.30
728;DHT22;347;48.780;9.158;2023-07-28T03:25:37;19.60;35.70
728;DHT22;347;48.780;9.158;2023-07-28T03:28:03;19.60;35.90
728;DHT22;347;48.780;9.158;2023-07-28T03:30:29;19.60;36.60
728;DHT22;347;48.780;9.158;2023-07-28T03:32:54;19.60;36.60
728;DHT22;347;48.780;9.158;2023-07-28T03:35:20;19.60;36.70
728;DHT22;347;48.780;9.158;2023-07-28T03:37:46;19.60;36.60
728;DHT22;347;48.780;9.158;2023-07-28T03:40:11;19.50;36.40
728;DHT22;347;48.780;9.158;2023-07-28T03:42:37;19.50;36.50
728;DHT22;347;48.780;9.158;2023-07-28T03:45:03;19.60;36.40
728;DHT22;347;48.780;9.158;2023-07-28T03:47:29;19.50;36.20
728;DHT22;347;48.780;9.158;2023-07-28T03:49:55;19.50;36.20
728;DHT22;347;48.780;9.158;2023-07-28T03:52:21;19.50;36.10
728;DHT22;347;48.780;9.158;2023-07-28T03:54:46;19.50;36.00
728;DHT22;347;48.780;9.158;2023-07-28T03:57:12;19.50;35.70
728;DHT22;347;48.780;9.158;2023-07-28T03:59:37;19.40;35.70
728;DHT22;347;48.780;9.158;2023-07-28T04:02:03;19.40;35.70
728;DHT22;347;48.780;9.158;2023-07-28T04:04:29;19.40;35.80
728;DHT22;347;48.780;9.158;2023-07-28T04:06:55;19.30;36.20
728;DHT22;347;48.780;9.158;2023-07-28T04:09:20;19.30;36.40
728;DHT22;347;48.780;9.158;2023-07-28T04:11:46;19.30;36.10
728;DHT22;347;48.780;9.158;2023-07-28T04:14:12;19.30;36.70
728;DHT22;347;48.780;9.158;2023-07-28T04:16:38;19.30;37.20
728;DHT22;347;48.780;9.158;2023-07-28T04:19:04;19.20;36.80
728;DHT22;347;48.780;9.158;2023-07-28T04:21:29;19.30;37.40
728;DHT22;347;48.780;9.158;2023-07-28T04:23:55;19.30;37.10
728;DHT22;347;48.780;9.158;2023-07-28T04:26:23;19.40;37.10
728;DHT22;347;48.780;9.158;2023-07-28T04:28:48;19.40;37.00
728;DHT22;347;48.780;9.158;2023-07-28T04:31:14;19.40;36.90
728;DHT22;347;48.780;9.158;2023-07-28T04:33:43;19.40;36.80
728;DHT22;347;48.780;9.158;2023-07-28T04:36:09;19.40;36.80
728;DHT22;347;48.780;9.158;2023-07-28T04:38:35;19.50;37.00
728;DHT22;347;48.780;9.158;2023-07-28T04:41:00;19.50;37.10
728;DHT22;347;48.780;9.158;2023-07-28T04:43:26;19.50;36.90
728;DHT22;347;48.780;9.158;2023-07-28T04:45:52;19.50;37.10
728;DHT22;347;48.780;9.158;2023-07-28T04:48:17;19.50;37.40
728;DHT22;347;48.780;9.158;2023-07-28T04:50:44;19.50;37.70
728;DHT22;347;48.780;9.158;2023-07-28T04:53:10;19.50;38.20
728;DHT22;347;48.780;9.158;2023-07-28T04:55:35;19.50;38.70
728;DHT22;347;48.780;9.158;2023-07-28T04:58:01;19.40;39.00
728;DHT22;347;48.780;9.158;2023-07-28T05:00:27;19.40;39.20
728;DHT22;347;48.780;9.158;2023-07-28T05:02:52;19.40;39.80
728;DHT22;347;48.780;9.158;2023-07-28T05:05:18;19.40;39.70
728;DHT22;347;48.780;9.158;2023-07-28T05:07:44;19.40;39.80
728;DHT22;347;48.780;9.158;2023-07-28T05:10:09;19.40;39.80
728;DHT22;347;48.780;9.158;2023-07-28T05:12:35;19.40;40.20
728;DHT22;347;48.780;9.158;2023-07-28T05:15:01;19.40;39.90
728;DHT22;347;48.780;9.158;2023-07-28T05:17:27;19.40;40.20
728;DHT22;347;48.780;9.158;2023-07-28T05:19:52;19.40;40.70
728;DHT22;347;48.780;9.158;2023-07-28T05:22:18;19.40;41.00
728;DHT22;347;48.780;9.158;2023-07-28T05:24:44;19.30;41.60
728;DHT22;347;48.780;9.158;2023-07-28T05:27:11;19.30;41.90
728;DHT22;347;48.780;9.158;2023-07-28T05:29:37;19.30;42.30
728;DHT22;347;48.780;9.158;2023-07-28T05:32:03;19.30;42.90
728;DHT22;347;48.780;9.158;2023-07-28T05:34:30;19.40;43.40
728;DHT22;347;48.780;9.158;2023-07-28T05:36:55;19.40;44.30
728;DHT22;347;48.780;9.158;2023-07-28T05:39:21;19.30;44.80
728;DHT22;347;48.780;9.158;2023-07-28T05:41:47;19.30;45.20
728;DHT22;347;48.780;9.158;2023-07-28T05:44:13;19.30;45.80
728;DHT22;347;48.780;9.158;2023-07-28T05:46:38;19.30;46.00
728;DHT22;347;48.780;9.158;2023-07-28T05:49:04;19.30;47.10
728;DHT22;347;48.780;9.158;2023-07-28T05:51:30;19.30;47.00
728;DHT22;347;48.780;9.158;2023-07-28T05:53:56;19.30;47.00
728;DHT22;347;48.780;9.158;2023-07-28T05:56:22;19.20;47.40
728;DHT22;347;48.780;9.158;2023-07-28T05:58:48;19.20;48.70
728;DHT22;347;48.780;9.158;2023-07-28T06:01:14;19.20;48.40
728;DHT22;347;48.780;9.158;2023-07-28T06:03:40;19.20;48.20
728;DHT22;347;48.780;9.158;2023-07-28T06:06:06;19.30;48.50
728;DHT22;347;48.780;9.158;2023-07-28T06:08:32;19.30;48.50
728;DHT22;347;48.780;9.158;2023-07-28T06:10:58;19.30;48.30
728;DHT22;347;48.780;9.158;2023-07-28T06:13:23;19.30;48.90
728;DHT22;347;48.780;9.158;2023-07-28T06:15:49;19.30;48.80
728;DHT22;347;48.780;9.158;2023-07-28T06:18:15;19.30;49.00
728;DHT22;347;48.780;9.158;2023-07-28T06:20:42;19.30;49.20
728;DHT22;347;48.780;9.158;2023-07-28T06:23:08;19.30;49.10
728;DHT22;347;48.780;9.158;2023-07-28T06:25:34;19.30;49.80
728;DHT22;347;48.780;9.158;2023-07-28T06:28:00;19.30;49.80
728;DHT22;347;48.780;9.158;2023-07-28T06:30:25;19.30;49.80
728;DHT22;347;48.780;9.158;2023-07-28T06:32:51;19.30;49.80
728;DHT22;347;48.780;9.158;2023-07-28T06:35:17;19.30;49.80
728;DHT22;347;48.780;9.158;2023-07-28T06:37:43;19.30;49.80
728;DHT22;347;48.780;9.158;2023-07-28T06:40:09;19.30;49.80
728;DHT22;347;48.780;9.158;2023-07-28T06:42:36;19.30;49.80
728;DHT22;347;48.780;9.158;2023-07-28T06:45:03;19.40;49.90
728;DHT22;347;48.780;9.158;2023-07-28T06:47:28;19.40;49.40
728;DHT22;347;48.780;9.158;2023-07-28T06:49:54;19.40;49.00
728;DHT22;347;48.780;9.158;2023-07-28T06:52:20;19.40;48.90
728;DHT22;347;48.780;9.158;2023-07-28T06:54:46;19.40;48.50
728;DHT22;347;48.780;9.158;2023-07-28T06:57:14;19.50;48.90
728;DHT22;347;48.780;9.158;2023-07-28T06:59:40;19.50;49.20
728;DHT22;347;48.780;9.158;2023-07-28T07:02:06;19.50;49.30
728;DHT22;347;48.780;9.158;2023-07-28T07:04:32;19.50;49.20
728;DHT22;347;48.780;9.158;2023-07-28T07:06:58;19.60;48.90
728;DHT22;347;48.780;9.158;2023-07-28T07:09:23;19.60;48.90
728;DHT22;347;48.780;9.158;2023-07-28T07:11:50;19.60;49.10
728;DHT22;347;48.780;9.158;2023-07-28T07:14:16;19.60;49.10
728;DHT22;347;48.780;9.158;2023-07-28T07:16:42;19.60;48.80
728;DHT22;347;48.780;9.158;2023-07-28T07:19:08;19.60;48.50
728;DHT22;347;48.780;9.158;2023-07-28T07:21:36;19.60;48.20
728;DHT22;347;48.780;9.158;2023-07-28T07:24:03;19.60;48.00
728;DHT22;347;48.780;9.158;2023-07-28T07:26:29;19.60;48.10
728;DHT22;347;48.780;9.158;2023-07-28T07:28:56;19.60;47.80
728;DHT22;347;48.780;9.158;2023-07-28T07:31:22;19.70;48.50
728;DHT22;347;48.780;9.158;2023-07-28T07:33:49;19.70;49.00
728;DHT22;347;48.780;9.158;2023-07-28T07:36:15;19.70;48.80
728;DHT22;347;48.780;9.158;2023-07-28T07:38:41;19.70;48.60
728;DHT22;347;48.780;9.158;2023-07-28T07:41:08;19.70;47.10
728;DHT22;347;48.780;9.158;2023-07-28T07:43:36;19.70;47.90
728;DHT22;347;48.780;9.158;2023-07-28T07:46:01;19.70;48.50
728;DHT22;347;48.780;9.158;2023-07-28T07:48:27;19.70;48.00
728;DHT22;347;48.780;9.158;2023-07-28T07:50:53;19.70;47.70
728;DHT22;347;48.780;9.158;2023-07-28T07:53:18;19.70;47.70
728;DHT22;347;48.780;9.158;2023-07-28T07:55:44;19.80;48.10
728;DHT22;347;48.780;9.158;2023-07-28T07:58:10;19.80;47.90
728;DHT22;347;48.780;9.158;2023-07-28T08:00:37;19.80;48.00
728;DHT22;347;48.780;9.158;2023-07-28T08:03:04;19.80;47.60
728;DHT22;347;48.780;9.158;2023-07-28T08:05:30;19.90;46.60
728;DHT22;347;48.780;9.158;2023-07-28T08:07:56;19.90;46.10
728;DHT22;347;48.780;9.158;2023-07-28T08:10:22;19.90;46.60
728;DHT22;347;48.780;9.158;2023-07-28T08:12:48;19.90;46.60
728;DHT22;347;48.780;9.158;2023-07-28T08:15:14;20.00;46.50
728;DHT22;347;48.780;9.158;2023-07-28T08:17:39;20.00;46.50
728;DHT22;347;48.780;9.158;2023-07-28T08:20:08;20.00;46.30
728;DHT22;347;48.780;9.158;2023-07-28T08:22:34;20.00;46.20
728;DHT22;347;48.780;9.158;2023-07-28T08:25:00;20.00;46.00
728;DHT22;347;48.780;9.158;2023-07-28T08:27:26;20.00;46.00
728;DHT22;347;48.780;9.158;2023-07-28T08:29:51;20.10;46.50
728;DHT22;347;48.780;9.158;2023-07-28T08:32:17;20.00;46.60
728;DHT22;347;48.780;9.158;2023-07-28T08:34:43;20.10;47.40
728;DHT22;347;48.780;9.158;2023-07-28T08:37:08;20.10;46.60
728;DHT22;347;48.780;9.158;2023-07-28T08:39:34;20.10;46.30
728;DHT22;347;48.780;9.158;2023-07-28T08:42:01;20.10;45.90
728;DHT22;347;48.780;9.158;2023-07-28T08:44:29;20.10;45.90
728;DHT22;347;48.780;9.158;2023-07-28T08:46:55;20.10;45.90
728;DHT22;347;48.780;9.158;2023-07-28T08:49:21;20.20;46.10
728;DHT22;347;48.780;9.158;2023-07-28T08:51:50;20.20;46.30
728;DHT22;347;48.780;9.158;2023-07-28T08:54:16;20.30;46.60
728;DHT22;347;48.780;9.158;2023-07-28T08:56:45;20.30;46.70
728;DHT22;347;48.780;9.158;2023-07-28T08:59:11;20.30;46.40
728;DHT22;347;48.780;9.158;2023-07-28T09:01:40;20.40;46.60
728;DHT22;347;48.780;9.158;2023-07-28T09:04:10;20.40;45.70
728;DHT22;347;48.780;9.158;2023-07-28T09:06:36;20.40;44.80
728;DHT22;347;48.780;9.158;2023-07-28T09:09:01;20.40;44.70
728;DHT22;347;48.780;9.158;2023-07-28T09:11:27;20.40;43.80
728;DHT22;347;48.780;9.158;2023-07-28T09:13:54;20.40;44.60
728;DHT22;347;48.780;9.158;2023-07-28T09:16:21;20.40;44.50
728;DHT22;347;48.780;9.158;2023-07-28T09:18:47;20.40;45.10
728;DHT22;347;48.780;9.158;2023-07-28T09:21:17;20.40;44.80
728;DHT22;347;48.780;9.158;2023-07-28T09:23:44;20.40;44.80
728;DHT22;347;48.780;9.158;2023-07-28T09:26:10;20.50;44.40
728;DHT22;347;48.780;9.158;2023-07-28T09:28:39;20.50;43.80
728;DHT22;347;48.780;9.158;2023-07-28T09:31:06;20.50;44.40
728;DHT22;347;48.780;9.158;2023-07-28T09:33:32;20.50;44.70
728;DHT22;347;48.780;9.158;2023-07-28T09:36:08;20.60;44.70
728;DHT22;347;48.780;9.158;2023-07-28T09:38:39;20.50;44.20
728;DHT22;347;48.780;9.158;2023-07-28T09:41:09;20.60;43.00
728;DHT22;347;48.780;9.158;2023-07-28T09:43:40;20.60;42.20
728;DHT22;347;48.780;9.158;2023-07-28T09:46:08;20.70;43.10
728;DHT22;347;48.780;9.158;2023-07-28T09:48:34;20.70;44.20
728;DHT22;347;48.780;9.158;2023-07-28T09:51:11;20.70;44.30
728;DHT22;347;48.780;9.158;2023-07-28T09:53:44;20.70;44.40
728;DHT22;347;48.780;9.158;2023-07-28T09:56:15;20.80;44.50
728;DHT22;347;48.780;9.158;2023-07-28T09:58:47;20.80;43.80
728;DHT22;347;48.780;9.158;2023-07-28T10:01:14;20.80;44.60
728;DHT22;347;48.780;9.158;2023-07-28T10:03:40;20.80;44.40
728;DHT22;347;48.780;9.158;2023-07-28T10:06:06;20.80;44.00
728;DHT22;347;48.780;9.158;2023-07-28T10:08:32;20.80;43.80
728;DHT22;347;48.780;9.158;2023-07-28T10:10:58;20.80;44.20
728;DHT22;347;48.780;9.158;2023-07-28T10:13:24;20.80;43.30
728;DHT22;347;48.780;9.158;2023-07-28T10:15:52;20.80;43.50
728;DHT22;347;48.780;9.158;2023-07-28T10:18:20;20.80;43.70
728;DHT22;347;48.780;9.158;2023-07-28T10:20:47;20.80;42.50
728;DHT22;347;48.780;9.158;2023-07-28T10:23:21;20.80;41.80
728;DHT22;347;48.780;9.158;2023-07-28T10:25:56;20.80;42.00
728;DHT22;347;48.780;9.158;2023-07-28T10:30:57;20.90;43.10
728;DHT22;347;48.780;9.158;2023-07-28T10:33:52;20.90;43.30
728;DHT22;347;48.780;9.158;2023-07-28T10:36:33;20.90;43.10
728;DHT22;347;48.780;9.158;2023-07-28T10:39:02;20.90;42.60
728;DHT22;347;48.780;9.158;2023-07-28T10:41:37;20.90;42.10
728;DHT22;347;48.780;9.158;2023-07-28T10:44:03;21.00;42.20
728;DHT22;347;48.780;9.158;2023-07-28T10:46:29;21.00;42.10
728;DHT22;347;48.780;9.158;2023-07-28T10:48:55;21.00;42.00
728;DHT22;347;48.780;9.158;2023-07-28T10:51:25;21.00;42.40
728;DHT22;347;48.780;9.158;2023-07-28T10:53:57;21.00;42.20
728;DHT22;347;48.780;9.158;2023-07-28T10:56:24;21.00;41.70
728;DHT22;347;48.780;9.158;2023-07-28T10:58:57;21.00;41.20
728;DHT22;347;48.780;9.158;2023-07-28T11:01:38;21.00;40.40
728;DHT22;347;48.780;9.158;2023-07-28T11:04:19;21.10;40.10
728;DHT22;347;48.780;9.158;2023-07-28T11:06:47;21.20;40.00
728;DHT22;347;48.780;9.158;2023-07-28T11:09:14;21.20;38.70
728;DHT22;347;48.780;9.158;2023-07-28T11:11:41;21.30;36.90
728;DHT22;347;48.780;9.158;2023-07-28T11:14:08;21.50;35.10
728;DHT22;347;48.780;9.158;2023-07-28T11:16:36;21.60;34.80
728;DHT22;347;48.780;9.158;2023-07-28T11:19:03;21.60;34.80
728;DHT22;347;48.780;9.158;2023-07-28T11:21:39;21.70;34.30
728;DHT22;347;48.780;9.158;2023-07-28T11:24:07;21.70;34.00
728;DHT22;347;48.780;9.158;2023-07-28T11:26:35;21.80;33.00
728;DHT22;347;48.780;9.158;2023-07-28T11:29:01;21.90;32.90
728;DHT22;347;48.780;9.158;2023-07-28T11:31:27;21.90;31.50
728;DHT22;347;48.780;9.158;2023-07-28T11:33:53;22.00;32.50
728;DHT22;347;48.780;9.158;2023-07-28T11:36:26;22.10;30.00
728;DHT22;347;48.780;9.158;2023-07-28T11:38:57;22.10;31.60
728;DHT22;347;48.780;9.158;2023-07-28T11:41:24;22.10;31.70
728;DHT22;347;48.780;9.158;2023-07-28T11:43:51;22.10;31.70
728;DHT22;347;48.780;9.158;2023-07-28T11:46:38;22.10;31.30
728;DHT22;347;48.780;9.158;2023-07-28T11:49:15;22.20;31.30
728;DHT22;347;48.780;9.158;2023-07-28T11:51:46;22.20;30.80
728;DHT22;347;48.780;9.158;2023-07-28T11:54:18;22.20;31.10
728;DHT22;347;48.780;9.158;2023-07-28T11:56:47;22.20;31.10
728;DHT22;347;48.780;9.158;2023-07-28T11:59:18;22.20;31.10
728;DHT22;347;48.780;9.158;2023-07-28T12:02:04;22.20;31.00
728;DHT22;347;48.780;9.158;2023-07-28T12:04:40;22.20;31.80
728;DHT22;347;48.780;9.158;2023-07-28T12:07:12;22.10;32.10
728;DHT22;347;48.780;9.158;2023-07-28T12:09:49;22.10;33.70
728;DHT22;347;48.780;9.158;2023-07-28T12:12:17;22.20;35.00
728;DHT22;347;48.780;9.158;2023-07-28T12:14:43;22.20;35.50
728;DHT22;347;48.780;9.158;2023-07-28T12:17:15;22.10;34.20
728;DHT22;347;48.780;9.158;2023-07-28T12:22:40;22.00;35.60
728;DHT22;347;48.780;9.158;2023-07-28T12:25:06;21.90;35.10
728;DHT22;347;48.780;9.158;2023-07-28T12:27:32;21.90;36.90
728;DHT22;347;48.780;9.158;2023-07-28T12:29:58;21.90;39.70
728;DHT22;347;48.780;9.158;2023-07-28T12:32:24;21.90;39.10
728;DHT22;347;48.780;9.158;2023-07-28T12:34:50;21.90;39.30
728;DHT22;347;48.780;9.158;2023-07-28T12:37:16;21.90;36.90
728;DHT22;347;48.780;9.158;2023-07-28T12:39:42;21.80;35.70
728;DHT22;347;48.780;9.158;2023-07-28T12:42:09;21.80;36.50
728;DHT22;347;48.780;9.158;2023-07-28T12:44:36;21.80;36.20
728;DHT22;347;48.780;9.158;2023-07-28T12:47:02;21.80;36.70
728;DHT22;347;48.780;9.158;2023-07-28T12:49:29;21.80;36.70
728;DHT22;347;48.780;9.158;2023-07-28T12:51:59;21.80;36.60
728;DHT22;347;48.780;9.158;2023-07-28T12:54:25;21.80;37.20
728;DHT22;347;48.780;9.158;2023-07-28T12:56:59;21.80;36.40
728;DHT22;347;48.780;9.158;2023-07-28T12:59:26;21.80;36.30
728;DHT22;347;48.780;9.158;2023-07-28T13:01:53;21.80;36.30
728;DHT22;347;48.780;9.158;2023-07-28T13:04:19;21.80;35.90
728;DHT22;347;48.780;9.158;2023-07-28T13:06:44;21.80;35.60
728;DHT22;347;48.780;9.158;2023-07-28T13:09:10;21.80;34.60
728;DHT22;347;48.780;9.158;2023-07-28T13:11:36;21.80;35.10
728;DHT22;347;48.780;9.158;2023-07-28T13:14:03;21.80;34.40
728;DHT22;347;48.780;9.158;2023-07-28T13:16:29;21.80;34.70
728;DHT22;347;48.780;9.158;2023-07-28T13:18:55;21.80;34.70
728;DHT22;347;48.780;9.158;2023-07-28T13:21:22;21.80;34.50
728;DHT22;347;48.780;9.158;2023-07-28T13:23:47;21.80;34.50
728;DHT22;347;48.780;9.158;2023-07-28T13:26:13;21.80;35.00
728;DHT22;347;48.780;9.158;2023-07-28T13:28:39;21.80;35.40
728;DHT22;347;48.780;9.158;2023-07-28T13:31:08;21.80;35.50
728;DHT22;347;48.780;9.158;2023-07-28T13:33:34;21.80;35.40
728;DHT22;347;48.780;9.158;2023-07-28T13:35:59;21.70;36.10
728;DHT22;347;48.780;9.158;2023-07-28T13:38:25;21.70;36.90
728;DHT22;347;48.780;9.158;2023-07-28T13:40:51;21.60;37.80
728;DHT22;347;48.780;9.158;2023-07-28T13:43:16;21.60;39.60
728;DHT22;347;48.780;9.158;2023-07-28T13:45:42;21.50;41.10
728;DHT22;347;48.780;9.158;2023-07-28T13:48:08;21.40;42.40
728;DHT22;347;48.780;9.158;2023-07-28T13:50:33;21.30;44.20
728;DHT22;347;48.780;9.158;2023-07-28T13:52:59;21.20;46.40
728;DHT22;347;48.780;9.158;2023-07-28T13:55:24;21.20;48.50
728;DHT22;347;48.780;9.158;2023-07-28T13:57:50;21.10;50.90
728;DHT22;347;48.780;9.158;2023-07-28T14:00:16;21.00;51.80
728;DHT22;347;48.780;9.158;2023-07-28T14:02:42;20.90;52.70
728;DHT22;347;48.780;9.158;2023-07-28T14:05:08;20.90;53.60
728;DHT22;347;48.780;9.158;2023-07-28T14:07:34;20.80;53.00
728;DHT22;347;48.780;9.158;2023-07-28T14:10:00;20.80;53.10
728;DHT22;347;48.780;9.158;2023-07-28T14:12:26;20.70;53.70
728;DHT22;347;48.780;9.158;2023-07-28T14:14:52;20.70;55.60
728;DHT22;347;48.780;9.158;2023-07-28T14:17:17;20.60;57.60
728;DHT22;347;48.780;9.158;2023-07-28T14:19:43;20.50;59.10
728;DHT22;347;48.780;9.158;2023-07-28T14:22:09;20.50;60.70
728;DHT22;347;48.780;9.158;2023-07-28T14:24:35;20.40;61.10
728;DHT22;347;48.780;9.158;2023-07-28T14:27:01;20.40;61.10
728;DHT22;347;48.780;9.158;2023-07-28T14:29:26;20.30;60.50
728;DHT22;347;48.780;9.158;2023-07-28T14:31:52;20.40;60.70
728;DHT22;347;48.780;9.158;2023-07-28T14:34:19;20.40;60.60
728;DHT22;347;48.780;9.158;2023-07-28T14:36:44;20.30;61.20
728;DHT22;347;48.780;9.158;2023-07-28T14:39:10;20.30;62.00
728;DHT22;347;48.780;9.158;2023-07-28T14:41:36;20.30;62.00
728;DHT22;347;48.780;9.158;2023-07-28T14:44:02;20.30;61.50
728;DHT22;347;48.780;9.158;2023-07-28T14:46:28;20.40;62.00
728;DHT22;347;48.780;9.158;2023-07-28T14:48:54;20.30;62.50
728;DHT22;347;48.780;9.158;2023-07-28T14:51:20;20.30;63.60
728;DHT22;347;48.780;9.158;2023-07-28T14:53:47;20.30;64.50
728;DHT22;347;48.780;9.158;2023-07-28T14:56:14;20.40;65.00
728;DHT22;347;48.780;9.158;2023-07-28T14:58:40;20.40;65.00
728;DHT22;347;48.780;9.158;2023-07-28T15:01:06;20.40;63.80
728;DHT22;347;48.780;9.158;2023-07-28T15:03:33;20.40;63.70
728;DHT22;347;48.780;9.158;2023-07-28T15:06:01;20.40;63.30
728;DHT22;347;48.780;9.158;2023-07-28T15:08:27;20.50;63.30
728;DHT22;347;48.780;9.158;2023-07-28T15:10:53;20.50;63.50
728;DHT22;347;48.780;9.158;2023-07-28T15:13:19;20.50;63.80
728;DHT22;347;48.780;9.158;2023-07-28T15:15:45;20.50;63.60
728;DHT22;347;48.780;9.158;2023-07-28T15:18:11;20.60;64.30
728;DHT22;347;48.780;9.158;2023-07-28T15:20:40;20.50;64.80
728;DHT22;347;48.780;9.158;2023-07-28T15:23:05;20.60;64.40
728;DHT22;347;48.780;9.158;2023-07-28T15:25:31;20.60;63.70
728;DHT22;347;48.780;9.158;2023-07-28T15:27:57;20.60;63.30
728;DHT22;347;48.780;9.158;2023-07-28T15:30:22;20.60;62.90
728;DHT22;347;48.780;9.158;2023-07-28T15:32:48;20.70;62.50
728;DHT22;347;48.780;9.158;2023-07-28T15:35:14;20.70;61.50
728;DHT22;347;48.780;9.158;2023-07-28T15:37:40;20.60;60.80
728;DHT22;347;48.780;9.158;2023-07-28T15:40:06;20.60;60.50
728;DHT22;347;48.780;9.158;2023-07-28T15:42:32;20.60;60.40
728;DHT22;347;48.780;9.158;2023-07-28T15:44:57;20.60;60.50
728;DHT22;347;48.780;9.158;2023-07-28T15:47:23;20.60;60.80
728;DHT22;347;48.780;9.158;2023-07-28T15:49:49;20.60;61.00
728;DHT22;347;48.780;9.158;2023-07-28T15:52:16;20.70;61.70
728;DHT22;347;48.780;9.158;2023-07-28T15:54:42;20.60;61.70
728;DHT22;347;48.780;9.158;2023-07-28T15:57:08;20.60;62.20
728;DHT22;347;48.780;9.158;2023-07-28T15:59:34;20.60;62.10
728;DHT22;347;48.780;9.158;2023-07-28T16:02:00;20.60;62.50
728;DHT22;347;48.780;9.158;2023-07-28T16:04:26;20.60;62.90
728;DHT22;347;48.780;9.158;2023-07-28T16:06:52;20.60;63.10
728;DHT22;347;48.780;9.158;2023-07-28T16:09:17;20.60;63.00
728;DHT22;347;48.780;9.158;2023-07-28T16:11:43;20.60;63.20
728;DHT22;347;48.780;9.158;2023-07-28T16:14:09;20.60;63.10
728;DHT22;347;48.780;9.158;2023-07-28T16:16:35;20.60;63.10
728;DHT22;347;48.780;9.158;2023-07-28T16:19:01;20.60;63.50
728;DHT22;347;48.780;9.158;2023-07-28T16:21:26;20.60;64.20
728;DHT22;347;48.780;9.158;2023-07-28T16:23:52;20.60;64.70
728;DHT22;347;48.780;9.158;2023-07-28T16:26:17;20.60;64.90
728;DHT22;347;48.780;9.158;2023-07-28T16:28:43;20.60;65.30
728;DHT22;347;48.780;9.158;2023-07-28T16:31:09;20.60;65.60
728;DHT22;347;48.780;9.158;2023-07-28T16:33:35;20.60;66.30
728;DHT22;347;48.780;9.158;2023-07-28T16:36:01;20.60;66.70
728;DHT22;347;48.780;9.158;2023-07-28T16:38:27;20.60;67.00